Time;durP1;ratioP1;P1;durP2;ratioP2;P2;SDS_P1;SDS_P2;PMS_P1;PMS_P2;Temp;Humidity;BMP_temperature;BMP_pressure;BME280_temperature;BME280_humidity;BME280_pressure;Samples;Min_cycle;Max_cycle;Signal;HPM_P1;HPM_P2
2023/05/24 00:00:04;;;;;;;2.85;1.75;;;10.60;99.90;;;;;;5027451;28;20057;-83
2023/05/24 00:02:32;;;;;;;2.67;1.20;;;10.70;99.90;;;;;;5036488;28;20102;-84
2023/05/24 00:04:59;;;;;;;2.25;1.23;;;10.70;99.90;;;;;;5035317;28;20380;-84
2023/05/24 00:07:27;;;;;;;2.47;1.50;;;10.80;99.90;;;;;;5028512;28;20055;-84
2023/05/24 00:09:54;;;;;;;1.77;1.40;;;10.90;99.90;;;;;;5038815;28;20044;-84
2023/05/24 00:12:21;;;;;;;2.40;1.40;;;10.90;99.90;;;;;;5029400;28;20110;-83
2023/05/24 00:14:48;;;;;;;2.35;1.35;;;10.90;99.90;;;;;;5036142;28;20135;-83
2023/05/24 00:17:15;;;;;;;2.65;1.08;;;11.00;99.90;;;;;;5018603;28;20452;-82
2023/05/24 00:19:42;;;;;;;1.65;0.90;;;11.10;99.90;;;;;;5012604;28;20527;-83
2023/05/24 00:22:10;;;;;;;1.80;0.80;;;11.10;99.90;;;;;;5046635;28;20067;-84
2023/05/24 00:24:37;;;;;;;1.63;1.02;;;11.20;99.90;;;;;;5050500;28;20773;-83
2023/05/24 00:27:05;;;;;;;1.42;1.02;;;11.20;99.90;;;;;;5045056;28;20044;-83
2023/05/24 00:29:32;;;;;;;1.90;0.98;;;11.20;99.90;;;;;;5044080;28;20071;-83
2023/05/24 00:32:00;;;;;;;2.25;1.55;;;11.30;99.90;;;;;;5054686;28;20592;-85
2023/05/24 00:34:27;;;;;;;3.10;1.50;;;11.30;99.90;;;;;;5054235;28;20388;-83
2023/05/24 00:36:55;;;;;;;1.73;1.02;;;11.30;99.90;;;;;;5035449;28;20049;-85
2023/05/24 00:39:22;;;;;;;1.17;0.90;;;11.40;99.90;;;;;;5018509;28;20505;-84
2023/05/24 00:41:49;;;;;;;1.20;0.95;;;11.50;99.90;;;;;;5060246;28;20048;-84
2023/05/24 00:44:16;;;;;;;1.63;1.10;;;11.50;99.90;;;;;;5050272;28;20060;-84
2023/05/24 00:46:43;;;;;;;1.98;0.90;;;11.60;99.90;;;;;;5035491;28;20083;-84
2023/05/24 00:49:10;;;;;;;1.75;0.90;;;11.60;99.90;;;;;;5061298;28;20048;-83
2023/05/24 00:51:37;;;;;;;2.03;0.93;;;11.60;99.90;;;;;;5023240;28;20045;-84
2023/05/24 00:54:05;;;;;;;2.20;1.08;;;11.60;99.90;;;;;;5048977;28;20057;-83
2023/05/24 00:56:32;;;;;;;2.53;1.23;;;11.70;99.90;;;;;;5031505;28;20055;-84
2023/05/24 00:59:00;;;;;;;1.45;0.88;;;11.70;99.90;;;;;;5059921;28;20168;-84
2023/05/24 01:01:29;;;;;;;1.48;0.93;;;11.70;99.90;;;;;;5039608;28;20063;-84
2023/05/24 01:03:58;;;;;;;2.78;1.20;;;11.70;99.90;;;;;;5051539;28;20048;-83
2023/05/24 01:06:27;;;;;;;1.38;0.82;;;11.80;99.90;;;;;;5034186;28;20049;-85
2023/05/24 01:09:16;;;;;;;2.13;0.80;;;11.80;99.90;;;;;;5021380;28;20064;-85
2023/05/24 01:11:49;;;;;;;1.23;0.60;;;11.90;99.90;;;;;;5018329;28;20105;-84
2023/05/24 01:14:26;;;;;;;1.25;0.75;;;12.00;99.90;;;;;;5055020;28;20529;-84
2023/05/24 01:17:36;;;;;;;1.15;0.70;;;12.00;99.90;;;;;;5055136;28;20638;-84
2023/05/24 01:20:07;;;;;;;1.00;0.68;;;12.10;99.90;;;;;;5042575;28;20123;-83
2023/05/24 01:23:05;;;;;;;1.30;0.70;;;12.10;99.90;;;;;;5034216;28;20116;-84
2023/05/24 01:25:48;;;;;;;0.95;0.57;;;12.10;99.90;;;;;;5034865;28;20051;-84
2023/05/24 01:28:16;;;;;;;0.63;0.50;;;12.10;99.90;;;;;;5018751;28;20134;-84
2023/05/24 01:30:43;;;;;;;1.55;0.70;;;12.10;99.90;;;;;;5031197;28;20045;-84
2023/05/24 01:33:10;;;;;;;0.85;0.55;;;12.00;99.90;;;;;;5033580;28;20558;-84
2023/05/24 01:35:41;;;;;;;0.85;0.50;;;12.00;99.90;;;;;;5052282;28;20048;-85
2023/05/24 01:38:11;;;;;;;1.15;0.70;;;11.90;99.90;;;;;;5016243;28;20049;-85
2023/05/24 01:40:39;;;;;;;2.30;0.88;;;11.80;99.90;;;;;;5046064;28;20289;-84
2023/05/24 01:43:17;;;;;;;1.05;0.50;;;11.70;99.90;;;;;;5026940;28;20053;-84
2023/05/24 01:45:59;;;;;;;2.15;0.93;;;11.60;99.90;;;;;;5061884;28;20044;-85
2023/05/24 01:48:57;;;;;;;0.80;0.50;;;11.50;99.90;;;;;;5059013;28;20416;-85
2023/05/24 01:51:24;;;;;;;0.88;0.50;;;11.40;99.90;;;;;;5058319;28;20056;-85
2023/05/24 01:53:50;;;;;;;1.25;0.80;;;11.40;99.90;;;;;;5027960;28;20053;-85
2023/05/24 01:56:18;;;;;;;1.23;0.75;;;11.30;99.90;;;;;;5030293;28;20152;-84
2023/05/24 01:58:46;;;;;;;1.05;0.40;;;11.30;99.90;;;;;;5018531;28;20044;-84
2023/05/24 02:01:13;;;;;;;1.25;0.65;;;11.30;99.90;;;;;;5059781;28;20416;-85
2023/05/24 02:03:40;;;;;;;0.60;0.40;;;11.30;99.90;;;;;;5023145;28;20132;-85
2023/05/24 02:06:09;;;;;;;1.58;0.80;;;11.20;99.90;;;;;;5050679;28;20048;-85
2023/05/24 02:08:36;;;;;;;1.38;0.60;;;11.10;99.90;;;;;;5028803;28;20041;-84
2023/05/24 02:11:03;;;;;;;0.73;0.47;;;11.00;99.90;;;;;;5037187;28;20479;-85
2023/05/24 02:13:31;;;;;;;1.85;0.90;;;10.90;99.90;;;;;;5040214;28;20045;-85
2023/05/24 02:15:58;;;;;;;0.80;0.65;;;10.80;99.90;;;;;;5021517;28;20096;-85
2023/05/24 02:18:25;;;;;;;1.35;0.63;;;10.80;99.90;;;;;;5026812;28;20087;-84
2023/05/24 02:20:52;;;;;;;1.17;0.65;;;10.70;99.90;;;;;;5048442;28;20056;-85
2023/05/24 02:23:19;;;;;;;1.88;0.70;;;10.60;99.90;;;;;;5055830;28;20632;-85
2023/05/24 02:25:46;;;;;;;1.60;0.60;;;10.60;99.90;;;;;;5045380;28;20106;-84
2023/05/24 02:28:14;;;;;;;2.30;1.00;;;10.60;99.90;;;;;;5025428;28;20068;-84
2023/05/24 02:30:43;;;;;;;1.02;0.57;;;10.50;99.90;;;;;;5038350;28;20130;-84
2023/05/24 02:33:11;;;;;;;1.23;0.70;;;10.50;99.90;;;;;;5038198;28;20053;-85
2023/05/24 02:35:40;;;;;;;0.95;0.70;;;10.50;99.90;;;;;;5051059;28;20132;-84
2023/05/24 02:38:08;;;;;;;0.60;0.50;;;10.40;99.90;;;;;;5030508;28;20231;-84
2023/05/24 02:40:35;;;;;;;1.58;0.73;;;10.40;99.90;;;;;;5045693;28;20103;-84
2023/05/24 02:43:02;;;;;;;1.15;0.80;;;10.40;99.90;;;;;;5023718;28;20049;-85
2023/05/24 02:45:30;;;;;;;0.68;0.45;;;10.40;99.90;;;;;;5037826;28;20317;-85
2023/05/24 02:47:57;;;;;;;1.25;0.63;;;10.30;99.90;;;;;;5050795;28;20472;-83
2023/05/24 02:50:24;;;;;;;0.95;0.60;;;10.30;99.90;;;;;;5027163;28;20121;-85
2023/05/24 02:52:51;;;;;;;0.95;0.60;;;10.20;99.90;;;;;;5023062;28;20163;-84
2023/05/24 02:55:18;;;;;;;1.70;0.77;;;10.20;99.90;;;;;;5045593;28;20098;-85
2023/05/24 02:57:46;;;;;;;2.03;0.80;;;10.20;99.90;;;;;;5052871;28;20128;-84
2023/05/24 03:00:14;;;;;;;1.30;0.55;;;10.10;99.90;;;;;;5028541;28;20455;-85
2023/05/24 03:02:41;;;;;;;1.30;0.82;;;10.10;99.90;;;;;;5023317;28;20076;-85
2023/05/24 03:05:08;;;;;;;1.55;0.60;;;10.10;99.90;;;;;;5058296;28;20131;-84
2023/05/24 03:07:35;;;;;;;1.17;0.50;;;10.10;99.90;;;;;;5017139;28;20604;-86
2023/05/24 03:10:02;;;;;;;1.05;0.63;;;10.00;99.90;;;;;;5057394;28;20427;-83
2023/05/24 03:12:29;;;;;;;1.33;0.60;;;10.00;99.90;;;;;;5044794;28;20592;-84
2023/05/24 03:14:56;;;;;;;0.85;0.75;;;9.90;99.90;;;;;;5056510;28;20136;-84
2023/05/24 03:17:23;;;;;;;0.88;0.68;;;9.90;99.90;;;;;;5040546;28;20557;-84
2023/05/24 03:19:51;;;;;;;0.63;0.60;;;9.90;99.90;;;;;;5039820;28;20062;-84
2023/05/24 03:22:18;;;;;;;1.08;0.50;;;9.90;99.90;;;;;;5039088;28;20420;-84
2023/05/24 03:24:47;;;;;;;1.42;0.68;;;9.90;99.90;;;;;;5033022;28;20076;-84
2023/05/24 03:27:14;;;;;;;1.23;0.50;;;9.80;99.90;;;;;;5039788;28;20111;-83
2023/05/24 03:29:41;;;;;;;0.50;0.50;;;9.80;99.90;;;;;;5036531;28;20041;-85
2023/05/24 03:32:08;;;;;;;0.93;0.60;;;9.70;99.90;;;;;;5025914;28;20053;-85
2023/05/24 03:34:35;;;;;;;1.10;0.65;;;9.70;99.90;;;;;;5026791;28;20052;-85
2023/05/24 03:37:02;;;;;;;1.30;0.57;;;9.70;99.90;;;;;;5015732;28;20099;-84
2023/05/24 03:39:28;;;;;;;0.80;0.50;;;9.70;99.90;;;;;;5030490;28;20058;-84
2023/05/24 03:41:55;;;;;;;1.15;0.60;;;9.60;99.90;;;;;;5060354;28;20040;-84
2023/05/24 03:44:23;;;;;;;0.77;0.63;;;9.60;99.90;;;;;;5018512;28;20045;-84
2023/05/24 03:46:50;;;;;;;1.40;0.70;;;9.60;99.90;;;;;;5055903;28;20044;-84
2023/05/24 03:49:17;;;;;;;1.25;0.70;;;9.60;99.90;;;;;;5056438;28;20056;-85
2023/05/24 03:51:44;;;;;;;1.38;0.73;;;9.60;99.90;;;;;;5052097;28;20061;-84
2023/05/24 03:54:11;;;;;;;1.75;0.75;;;9.50;99.90;;;;;;5021007;28;20523;-85
2023/05/24 03:56:39;;;;;;;0.90;0.70;;;9.40;99.90;;;;;;5041373;28;20048;-84
2023/05/24 03:59:06;;;;;;;0.63;0.50;;;9.40;99.90;;;;;;5058464;28;20760;-85
2023/05/24 04:01:35;;;;;;;1.00;0.60;;;9.40;99.90;;;;;;5050546;28;20088;-84
2023/05/24 04:04:02;;;;;;;1.70;0.80;;;9.40;99.90;;;;;;5039395;28;20121;-84
2023/05/24 04:06:30;;;;;;;0.77;0.57;;;9.40;99.90;;;;;;5028657;28;20132;-84
2023/05/24 04:08:58;;;;;;;2.08;0.70;;;9.40;99.90;;;;;;5056672;28;20132;-84
2023/05/24 04:11:28;;;;;;;1.55;0.70;;;9.40;99.90;;;;;;5019182;28;20057;-85
2023/05/24 04:13:56;;;;;;;1.45;0.70;;;9.40;99.90;;;;;;5046926;28;20056;-85
2023/05/24 04:16:23;;;;;;;0.98;0.47;;;9.40;99.90;;;;;;5036724;28;20045;-84
2023/05/24 04:18:50;;;;;;;1.15;0.80;;;9.40;99.90;;;;;;5032184;28;20057;-86
2023/05/24 04:21:18;;;;;;;1.05;0.70;;;9.40;99.90;;;;;;5027966;28;20123;-85
2023/05/24 04:23:45;;;;;;;1.08;0.50;;;9.40;99.90;;;;;;5043272;28;20052;-84
2023/05/24 04:26:12;;;;;;;1.83;0.80;;;9.50;99.90;;;;;;5037732;28;20065;-84
2023/05/24 04:28:40;;;;;;;1.60;1.00;;;9.50;99.90;;;;;;5030143;28;20117;-84
2023/05/24 04:31:08;;;;;;;1.27;0.88;;;9.60;99.90;;;;;;5033752;28;20049;-84
2023/05/24 04:33:35;;;;;;;1.05;0.75;;;9.60;99.90;;;;;;5036852;28;20054;-83
2023/05/24 04:36:02;;;;;;;0.75;0.65;;;9.60;99.90;;;;;;5035492;28;20064;-84
2023/05/24 04:38:31;;;;;;;1.98;0.90;;;9.60;99.90;;;;;;5009800;28;20648;-83
2023/05/24 04:40:58;;;;;;;1.02;0.65;;;9.70;99.90;;;;;;5039361;28;20049;-83
2023/05/24 04:43:25;;;;;;;1.13;0.75;;;9.70;99.90;;;;;;5054791;28;20109;-86
2023/05/24 04:45:56;;;;;;;1.08;0.70;;;9.80;99.90;;;;;;5026301;28;20053;-84
2023/05/24 04:48:23;;;;;;;1.13;0.70;;;9.80;99.90;;;;;;5043032;28;20041;-82
2023/05/24 04:50:51;;;;;;;1.27;0.73;;;9.90;99.90;;;;;;5047219;28;20176;-83
2023/05/24 04:53:19;;;;;;;1.05;0.73;;;9.90;99.90;;;;;;5029723;28;20082;-83
2023/05/24 04:55:46;;;;;;;1.67;0.73;;;10.00;99.90;;;;;;5047780;28;20052;-83
2023/05/24 04:58:14;;;;;;;1.27;0.70;;;10.00;99.90;;;;;;5018480;28;20126;-83
2023/05/24 05:00:42;;;;;;;1.60;0.98;;;10.10;99.90;;;;;;5032820;28;20141;-84
2023/05/24 05:03:10;;;;;;;1.98;0.82;;;10.20;99.90;;;;;;5047796;28;20055;-83
2023/05/24 05:05:37;;;;;;;1.13;0.75;;;10.20;99.90;;;;;;5013352;28;20118;-84
2023/05/24 05:08:05;;;;;;;1.70;0.75;;;10.30;99.90;;;;;;5041023;28;20083;-85
2023/05/24 05:10:32;;;;;;;3.55;0.88;;;10.30;99.90;;;;;;5020822;28;20044;-84
2023/05/24 05:12:59;;;;;;;1.98;1.10;;;10.40;99.90;;;;;;5036282;28;20103;-82
2023/05/24 05:15:26;;;;;;;1.65;1.05;;;10.40;99.90;;;;;;5051214;28;20570;-82
2023/05/24 05:17:53;;;;;;;2.10;1.27;;;10.50;99.90;;;;;;5028925;28;20060;-82
2023/05/24 05:20:21;;;;;;;2.33;1.20;;;10.50;99.90;;;;;;5043985;28;20037;-83
2023/05/24 05:22:48;;;;;;;2.88;1.35;;;10.60;99.90;;;;;;5048672;28;20049;-84
2023/05/24 05:25:15;;;;;;;2.58;1.35;;;10.70;99.90;;;;;;5038014;28;20115;-83
2023/05/24 05:27:42;;;;;;;2.72;1.23;;;10.70;99.90;;;;;;5047209;28;20129;-84
2023/05/24 05:30:11;;;;;;;1.30;0.95;;;10.80;99.90;;;;;;5021179;28;20053;-84
2023/05/24 05:32:38;;;;;;;2.22;1.13;;;10.90;99.90;;;;;;5040102;28;20057;-83
2023/05/24 05:35:06;;;;;;;1.92;1.20;;;11.00;99.90;;;;;;5033483;28;20563;-82
2023/05/24 05:37:34;;;;;;;2.22;1.30;;;11.10;99.90;;;;;;5047757;28;20240;-82
2023/05/24 05:40:02;;;;;;;3.38;1.42;;;11.20;99.90;;;;;;5044087;28;20059;-80
2023/05/24 05:42:30;;;;;;;2.60;1.60;;;11.20;99.90;;;;;;5030858;28;20127;-82
2023/05/24 05:44:57;;;;;;;4.13;1.98;;;11.20;99.90;;;;;;5054962;28;20056;-82
2023/05/24 05:47:24;;;;;;;3.20;1.48;;;11.30;99.90;;;;;;5020621;28;20057;-82
2023/05/24 05:49:51;;;;;;;2.95;1.60;;;11.40;99.90;;;;;;5019277;28;20056;-82
2023/05/24 05:52:18;;;;;;;2.70;1.60;;;11.40;99.90;;;;;;5015783;28;20411;-81
2023/05/24 05:54:45;;;;;;;3.55;1.83;;;11.50;99.90;;;;;;5036947;28;20447;-82
2023/05/24 05:57:13;;;;;;;2.42;1.60;;;11.60;99.90;;;;;;5038091;28;20832;-80
2023/05/24 05:59:40;;;;;;;3.10;1.80;;;11.60;99.90;;;;;;5049709;28;20102;-81
2023/05/24 06:02:07;;;;;;;3.08;1.60;;;11.70;99.90;;;;;;5042535;28;20053;-82
2023/05/24 06:04:34;;;;;;;4.35;2.13;;;11.80;99.90;;;;;;5029242;28;20048;-82
2023/05/24 06:07:01;;;;;;;3.83;2.17;;;11.80;99.90;;;;;;5038849;28;20819;-81
2023/05/24 06:09:28;;;;;;;4.53;2.20;;;11.90;99.90;;;;;;5048502;28;20587;-82
2023/05/24 06:11:55;;;;;;;3.30;1.90;;;11.90;99.90;;;;;;5026579;28;20052;-80
2023/05/24 06:14:23;;;;;;;3.00;1.67;;;12.00;99.90;;;;;;5018713;28;20056;-81
2023/05/24 06:16:53;;;;;;;2.58;1.90;;;12.10;99.90;;;;;;5038601;28;20051;-80
2023/05/24 06:19:23;;;;;;;3.00;1.80;;;12.10;99.90;;;;;;5025614;28;20502;-81
2023/05/24 06:21:51;;;;;;;3.42;1.95;;;12.30;99.90;;;;;;5029008;28;20407;-81
2023/05/24 06:24:21;;;;;;;3.13;2.03;;;12.30;99.90;;;;;;5040011;28;20457;-80
2023/05/24 06:26:49;;;;;;;3.28;2.17;;;12.30;99.90;;;;;;5030452;28;20167;-81
2023/05/24 06:29:20;;;;;;;5.05;2.25;;;12.40;99.90;;;;;;5036490;28;20144;-81
2023/05/24 06:31:48;;;;;;;4.00;2.20;;;12.50;99.90;;;;;;5041300;28;20063;-81
2023/05/24 06:34:16;;;;;;;4.43;2.45;;;12.50;99.90;;;;;;5040447;28;20063;-81
2023/05/24 06:36:45;;;;;;;5.15;2.55;;;12.60;99.90;;;;;;5015500;28;20061;-81
2023/05/24 06:39:13;;;;;;;3.38;1.90;;;12.60;99.90;;;;;;5028908;28;20103;-81
2023/05/24 06:41:42;;;;;;;3.10;1.60;;;12.70;99.90;;;;;;5004321;28;20161;-81
2023/05/24 06:44:09;;;;;;;4.97;2.63;;;12.80;99.90;;;;;;5022211;28;20047;-81
2023/05/24 06:46:36;;;;;;;3.67;1.77;;;12.80;99.90;;;;;;5040359;28;20048;-81
2023/05/24 06:49:04;;;;;;;4.68;2.47;;;12.90;99.90;;;;;;5040419;28;20056;-80
2023/05/24 06:51:32;;;;;;;3.28;1.98;;;12.90;99.90;;;;;;5026276;28;20053;-81
2023/05/24 06:54:00;;;;;;;3.33;1.92;;;12.90;99.90;;;;;;5015710;28;20052;-80
2023/05/24 06:56:27;;;;;;;7.15;2.35;;;13.00;99.90;;;;;;5018777;28;20072;-81
2023/05/24 06:58:55;;;;;;;4.95;2.40;;;13.00;99.90;;;;;;5006003;28;20659;-80
2023/05/24 07:01:26;;;;;;;4.35;2.13;;;13.00;99.90;;;;;;5019786;28;20055;-81
2023/05/24 07:03:53;;;;;;;5.05;2.50;;;13.10;99.90;;;;;;5022207;28;20049;-82
2023/05/24 07:06:20;;;;;;;7.18;3.40;;;13.20;99.90;;;;;;5025484;28;20052;-81
2023/05/24 07:08:48;;;;;;;6.53;2.95;;;13.20;99.90;;;;;;5037004;28;20045;-81
2023/05/24 07:11:15;;;;;;;6.70;2.63;;;13.20;99.90;;;;;;5043637;28;20049;-82
2023/05/24 07:13:42;;;;;;;5.65;2.63;;;13.30;99.90;;;;;;5013100;28;20520;-81
2023/05/24 07:16:09;;;;;;;4.85;2.47;;;13.40;99.90;;;;;;5034805;28;20110;-80
2023/05/24 07:18:36;;;;;;;9.13;4.05;;;13.40;99.90;;;;;;5002067;28;20056;-81
2023/05/24 07:21:03;;;;;;;8.32;3.75;;;13.40;99.90;;;;;;5038618;28;20952;-80
2023/05/24 07:23:33;;;;;;;6.18;3.60;;;13.50;99.90;;;;;;5047524;28;20103;-81
2023/05/24 07:26:00;;;;;;;3.97;2.40;;;13.50;99.90;;;;;;5001273;28;20566;-80
2023/05/24 07:28:27;;;;;;;4.03;2.33;;;13.60;99.90;;;;;;5017897;28;20053;-81
2023/05/24 07:30:54;;;;;;;4.38;2.80;;;13.70;99.90;;;;;;5026534;28;20102;-81
2023/05/24 07:33:21;;;;;;;6.38;3.10;;;13.70;99.90;;;;;;5006898;28;20143;-81
2023/05/24 07:35:50;;;;;;;6.10;3.08;;;13.70;99.90;;;;;;5033404;28;20524;-81
2023/05/24 07:38:17;;;;;;;6.90;3.00;;;13.70;99.90;;;;;;5032730;28;20053;-81
2023/05/24 07:40:45;;;;;;;3.97;2.13;;;13.80;99.90;;;;;;5045068;28;20055;-81
2023/05/24 07:43:12;;;;;;;4.88;2.72;;;13.80;99.90;;;;;;5046644;28;20060;-81
2023/05/24 07:45:39;;;;;;;5.43;2.90;;;13.80;99.90;;;;;;5035262;28;20372;-81
2023/05/24 07:48:08;;;;;;;5.80;3.17;;;13.90;99.90;;;;;;5010727;28;20048;-80
2023/05/24 07:50:35;;;;;;;4.28;3.03;;;13.90;99.90;;;;;;5051561;28;20150;-82
2023/05/24 07:53:04;;;;;;;8.13;3.38;;;14.10;99.90;;;;;;5032244;28;20113;-81
2023/05/24 07:55:32;;;;;;;4.88;2.70;;;14.10;99.90;;;;;;5049178;28;20122;-80
2023/05/24 07:58:00;;;;;;;7.07;2.70;;;14.10;99.90;;;;;;5040905;28;20110;-79
2023/05/24 08:00:27;;;;;;;4.03;2.20;;;14.30;99.90;;;;;;5040534;28;20121;-81
2023/05/24 08:02:53;;;;;;;4.93;2.40;;;14.30;99.90;;;;;;5052653;28;20094;-81
2023/05/24 08:05:21;;;;;;;9.43;3.22;;;14.50;99.90;;;;;;5036201;28;20084;-81
2023/05/24 08:07:47;;;;;;;7.55;3.20;;;14.50;99.90;;;;;;5037367;28;20124;-80
2023/05/24 08:10:14;;;;;;;6.55;3.63;;;14.50;99.90;;;;;;5031427;28;20059;-80
2023/05/24 08:12:41;;;;;;;5.25;2.25;;;14.50;99.90;;;;;;5006896;28;20048;-82
2023/05/24 08:15:09;;;;;;;6.68;3.53;;;14.70;99.90;;;;;;5017295;28;20555;-83
2023/05/24 08:17:37;;;;;;;4.45;2.40;;;14.70;99.90;;;;;;5001669;28;20049;-81
2023/05/24 08:20:08;;;;;;;5.20;2.80;;;14.80;99.90;;;;;;5044501;28;20134;-81
2023/05/24 08:22:36;;;;;;;4.00;2.38;;;14.90;99.90;;;;;;5054256;28;20044;-82
2023/05/24 08:25:03;;;;;;;5.35;3.03;;;14.90;99.90;;;;;;5053436;28;20048;-82
2023/05/24 08:27:31;;;;;;;4.95;2.53;;;15.00;99.90;;;;;;5037458;28;20045;-82
2023/05/24 08:29:58;;;;;;;5.32;3.20;;;15.00;99.90;;;;;;5055615;28;20176;-80
2023/05/24 08:32:25;;;;;;;6.97;3.20;;;15.20;99.90;;;;;;5053771;28;20203;-82
2023/05/24 08:34:52;;;;;;;8.48;3.67;;;15.20;99.90;;;;;;5037156;28;20079;-82
2023/05/24 08:37:36;;;;;;;5.60;2.67;;;15.10;99.90;;;;;;5040223;28;20056;-82
2023/05/24 08:40:04;;;;;;;5.82;2.58;;;15.20;99.90;;;;;;5052108;28;20096;-82
2023/05/24 08:42:31;;;;;;;6.95;2.63;;;15.30;99.90;;;;;;5034993;28;20072;-81
2023/05/24 08:45:02;;;;;;;5.55;3.70;;;15.50;99.90;;;;;;5053319;28;20092;-82
2023/05/24 08:47:30;;;;;;;7.28;3.20;;;15.50;99.90;;;;;;5025511;28;20112;-82
2023/05/24 08:49:56;;;;;;;5.20;2.63;;;15.70;99.90;;;;;;5057540;28;20541;-81
2023/05/24 08:52:23;;;;;;;5.05;2.92;;;15.70;99.90;;;;;;5028709;28;20048;-81
2023/05/24 08:54:51;;;;;;;7.00;3.22;;;15.80;99.90;;;;;;5039674;28;20744;-82
2023/05/24 08:57:17;;;;;;;3.97;2.42;;;16.00;99.90;;;;;;5058161;28;20171;-82
2023/05/24 08:59:44;;;;;;;5.15;2.25;;;16.00;99.90;;;;;;5022016;28;20064;-83
2023/05/24 09:02:13;;;;;;;5.88;2.90;;;16.10;99.90;;;;;;5044699;28;20052;-81
2023/05/24 09:04:40;;;;;;;5.18;2.63;;;16.10;99.90;;;;;;5024184;28;20055;-82
2023/05/24 09:07:07;;;;;;;4.65;2.65;;;16.20;99.90;;;;;;5018278;28;20053;-82
2023/05/24 09:09:34;;;;;;;7.25;2.63;;;16.30;99.90;;;;;;5042099;28;20053;-81
2023/05/24 09:12:03;;;;;;;5.20;2.40;;;16.40;99.90;;;;;;5023389;28;20411;-81
2023/05/24 09:14:30;;;;;;;6.13;2.70;;;16.50;99.90;;;;;;5043142;28;20090;-81
2023/05/24 09:16:57;;;;;;;4.70;2.70;;;16.50;99.90;;;;;;5032757;28;20385;-81
2023/05/24 09:19:26;;;;;;;5.15;2.47;;;16.60;99.90;;;;;;5044836;28;20060;-80
2023/05/24 09:21:53;;;;;;;5.72;3.10;;;16.50;99.90;;;;;;5019804;28;20048;-81
2023/05/24 09:24:22;;;;;;;5.80;2.67;;;16.60;99.90;;;;;;5022147;28;20064;-81
2023/05/24 09:26:49;;;;;;;6.72;3.22;;;16.50;99.90;;;;;;5026273;28;20101;-81
2023/05/24 09:29:20;;;;;;;4.90;2.45;;;16.60;99.90;;;;;;5013895;28;20060;-81
2023/05/24 09:31:47;;;;;;;6.10;3.10;;;16.70;99.90;;;;;;5025346;28;20049;-81
2023/05/24 09:34:14;;;;;;;4.15;2.22;;;16.80;99.90;;;;;;5016144;28;20049;-81
2023/05/24 09:36:41;;;;;;;3.97;2.47;;;16.90;99.90;;;;;;5012423;28;20090;-80
2023/05/24 09:39:09;;;;;;;6.07;2.85;;;17.00;99.90;;;;;;5041417;28;20137;-81
2023/05/24 09:41:36;;;;;;;6.32;2.47;;;17.00;99.90;;;;;;5025150;28;20086;-81
2023/05/24 09:44:03;;;;;;;4.15;2.28;;;17.00;99.90;;;;;;5017537;28;20045;-81
2023/05/24 09:46:34;;;;;;;4.05;1.90;;;17.20;99.90;;;;;;5025597;28;20123;-81
2023/05/24 09:49:06;;;;;;;3.45;1.90;;;17.30;99.90;;;;;;5042989;28;20428;-80
2023/05/24 09:51:37;;;;;;;3.75;2.20;;;17.40;99.90;;;;;;5035703;28;20062;-81
2023/05/24 09:54:04;;;;;;;6.15;2.40;;;17.60;99.90;;;;;;5035999;28;20338;-81
2023/05/24 09:56:32;;;;;;;4.75;2.33;;;17.50;99.90;;;;;;5009719;28;20049;-81
2023/05/24 09:59:04;;;;;;;3.35;1.80;;;17.60;99.60;;;;;;5041487;28;20974;-81
2023/05/24 10:01:32;;;;;;;4.28;2.70;;;17.60;99.00;;;;;;5020076;28;20095;-81
2023/05/24 10:04:01;;;;;;;6.47;2.42;;;17.80;99.10;;;;;;5053098;28;20344;-81
2023/05/24 10:06:35;;;;;;;5.22;2.55;;;17.80;98.40;;;;;;5025959;28;20458;-81
2023/05/24 10:09:06;;;;;;;4.60;2.10;;;17.90;99.30;;;;;;5037699;28;20063;-82
2023/05/24 10:11:35;;;;;;;6.07;2.70;;;18.10;99.50;;;;;;5016500;28;20392;-82
2023/05/24 10:14:07;;;;;;;6.05;2.50;;;18.10;98.40;;;;;;5037209;28;20532;-79
2023/05/24 10:16:36;;;;;;;4.95;2.42;;;18.10;97.90;;;;;;5029690;28;20512;-79
2023/05/24 10:19:05;;;;;;;3.95;2.13;;;18.10;98.20;;;;;;5033816;28;20064;-79
2023/05/24 10:21:32;;;;;;;4.80;2.60;;;18.30;98.20;;;;;;5040749;28;20059;-78
2023/05/24 10:24:00;;;;;;;4.78;2.65;;;18.20;98.30;;;;;;5033166;28;20053;-79
2023/05/24 10:26:28;;;;;;;4.03;1.90;;;18.30;95.90;;;;;;5028097;28;20044;-79
2023/05/24 10:28:58;;;;;;;5.70;3.20;;;18.40;96.90;;;;;;5017824;28;20139;-80
2023/05/24 10:31:28;;;;;;;4.75;2.40;;;18.50;97.30;;;;;;5033864;28;20076;-80
2023/05/24 10:33:57;;;;;;;6.55;2.67;;;18.50;97.60;;;;;;5027703;28;20082;-79
2023/05/24 10:36:33;;;;;;;3.92;2.33;;;18.60;97.50;;;;;;5020316;28;20049;-80
2023/05/24 10:39:02;;;;;;;6.13;2.88;;;18.80;97.50;;;;;;5048021;28;20065;-80
2023/05/24 10:41:29;;;;;;;4.10;2.63;;;18.80;97.30;;;;;;5034018;28;20052;-80
2023/05/24 10:43:56;;;;;;;5.05;2.28;;;18.80;97.60;;;;;;5043524;28;20487;-80
2023/05/24 10:46:37;;;;;;;6.30;2.80;;;19.00;97.30;;;;;;5012423;28;20552;-79
2023/05/24 10:49:05;;;;;;;5.95;2.65;;;19.20;97.10;;;;;;5027935;28;20396;-84
2023/05/24 10:51:37;;;;;;;5.50;2.15;;;19.30;97.10;;;;;;5057476;28;20064;-80
2023/05/24 10:54:15;;;;;;;4.25;2.20;;;19.60;95.50;;;;;;5040742;28;20662;-79
2023/05/24 10:56:47;;;;;;;6.22;2.78;;;19.80;95.00;;;;;;5026246;28;20067;-80
2023/05/24 10:59:36;;;;;;;2.90;1.98;;;19.60;95.90;;;;;;5041535;28;20106;-80
2023/05/24 11:02:14;;;;;;;4.97;2.35;;;19.80;96.20;;;;;;5026928;28;20132;-80
2023/05/24 11:04:45;;;;;;;4.35;2.42;;;20.10;95.10;;;;;;5036855;28;20106;-79
2023/05/24 11:07:14;;;;;;;4.63;2.60;;;20.10;94.20;;;;;;5038854;28;20412;-79
2023/05/24 11:09:45;;;;;;;2.95;1.77;;;20.20;94.80;;;;;;5058248;28;20056;-79
2023/05/24 11:12:16;;;;;;;5.20;2.58;;;20.40;94.50;;;;;;5027162;28;20094;-79
2023/05/24 11:14:48;;;;;;;6.45;3.03;;;20.40;95.00;;;;;;5041755;28;20082;-79
2023/05/24 11:17:15;;;;;;;6.50;2.40;;;20.00;94.60;;;;;;5060538;28;20052;-79
2023/05/24 11:19:55;;;;;;;4.43;2.38;;;20.40;95.50;;;;;;5028523;28;20064;-79
2023/05/24 11:22:23;;;;;;;3.05;2.40;;;20.70;93.50;;;;;;5028440;28;20090;-79
2023/05/24 11:24:51;;;;;;;4.95;2.47;;;21.00;93.20;;;;;;5040243;28;20126;-79
2023/05/24 11:27:18;;;;;;;4.07;2.47;;;21.10;93.70;;;;;;5041636;28;20055;-79
2023/05/24 11:29:46;;;;;;;6.45;3.00;;;21.10;94.30;;;;;;5027211;28;20059;-79
2023/05/24 11:32:17;;;;;;;6.13;2.80;;;21.30;93.50;;;;;;5044451;28;20440;-79
2023/05/24 11:34:48;;;;;;;3.67;2.23;;;21.60;93.20;;;;;;5024778;28;20132;-79
2023/05/24 11:37:15;;;;;;;4.32;2.08;;;21.90;92.80;;;;;;5041242;28;20566;-79
2023/05/24 11:39:48;;;;;;;3.35;2.05;;;22.00;93.00;;;;;;5043024;28;20076;-79
2023/05/24 11:42:15;;;;;;;4.38;2.10;;;22.10;92.10;;;;;;5028453;28;20048;-79
2023/05/24 11:44:42;;;;;;;3.90;2.10;;;22.20;91.20;;;;;;5024146;28;20511;-79
2023/05/24 11:47:10;;;;;;;4.05;2.15;;;22.50;91.90;;;;;;5025044;28;20491;-79
2023/05/24 11:49:37;;;;;;;4.63;2.28;;;22.60;91.40;;;;;;5042121;28;20474;-78
2023/05/24 11:52:05;;;;;;;3.65;2.00;;;22.80;91.10;;;;;;5028051;28;20145;-79
2023/05/24 11:54:33;;;;;;;4.00;2.30;;;23.10;91.50;;;;;;5039010;28;20080;-79
2023/05/24 11:57:00;;;;;;;4.30;2.40;;;23.40;91.40;;;;;;5041702;28;20099;-79
2023/05/24 11:59:28;;;;;;;5.03;2.33;;;23.50;90.00;;;;;;5040830;28;20106;-79
2023/05/24 12:01:59;;;;;;;2.95;1.88;;;23.50;90.30;;;;;;5061060;28;20060;-79
2023/05/24 12:04:27;;;;;;;3.60;2.05;;;23.80;89.80;;;;;;5040743;28;20140;-79
2023/05/24 12:06:54;;;;;;;4.03;2.15;;;23.90;90.00;;;;;;5023774;28;20132;-79
2023/05/24 12:09:21;;;;;;;4.25;2.65;;;24.00;88.40;;;;;;5039270;28;20056;-79
2023/05/24 12:11:49;;;;;;;5.32;2.55;;;23.60;88.80;;;;;;5024557;28;20060;-80
2023/05/24 12:14:17;;;;;;;4.20;2.60;;;23.50;90.20;;;;;;5039804;28;20057;-80
2023/05/24 12:16:45;;;;;;;4.57;2.60;;;23.80;89.60;;;;;;5038775;28;20061;-80
2023/05/24 12:19:18;;;;;;;4.78;2.42;;;24.30;87.00;;;;;;5037611;28;20083;-80
2023/05/24 12:21:59;;;;;;;2.95;2.00;;;24.70;88.70;;;;;;5042378;28;20140;-80
2023/05/24 12:24:26;;;;;;;3.97;2.28;;;25.00;87.80;;;;;;5040465;28;20418;-80
2023/05/24 12:27:00;;;;;;;3.35;2.20;;;24.80;87.70;;;;;;5041518;28;20059;-79
2023/05/24 12:29:35;;;;;;;3.65;2.20;;;25.30;88.40;;;;;;5043619;28;20041;-80
2023/05/24 12:32:03;;;;;;;2.47;1.80;;;25.30;86.80;;;;;;5027251;28;20056;-80
2023/05/24 12:34:30;;;;;;;3.72;2.58;;;25.40;88.40;;;;;;5061061;28;20071;-80
2023/05/24 12:36:58;;;;;;;4.03;2.08;;;25.90;86.30;;;;;;5028982;28;20427;-80
2023/05/24 12:39:30;;;;;;;2.78;1.80;;;26.00;84.60;;;;;;5063564;28;20060;-80
2023/05/24 12:41:58;;;;;;;3.15;2.05;;;26.10;84.10;;;;;;5045430;28;20067;-80
2023/05/24 12:44:30;;;;;;;4.90;2.22;;;26.00;84.40;;;;;;5044055;28;20060;-80
2023/05/24 12:46:57;;;;;;;3.72;2.22;;;25.80;84.70;;;;;;5036903;28;20403;-80
2023/05/24 12:49:24;;;;;;;3.42;2.30;;;25.80;84.50;;;;;;5047820;28;20052;-80
2023/05/24 12:51:53;;;;;;;2.63;1.95;;;26.00;83.20;;;;;;5034366;28;20089;-80
2023/05/24 12:54:25;;;;;;;3.10;1.50;;;26.10;81.50;;;;;;5044110;28;20615;-80